createdAt,value
2022-11-29T00:01:04.383Z,3.25
2022-11-29T00:05:06.628Z,3.88
2022-11-29T00:09:11.907Z,4.10
2022-11-29T00:13:14.087Z,3.73
2022-11-29T00:17:15.846Z,3.90
2022-11-29T00:21:17.495Z,3.97
2022-11-29T00:25:19.135Z,3.70
2022-11-29T00:29:20.833Z,3.88
2022-11-29T00:33:22.454Z,3.53
2022-11-29T00:37:24.107Z,3.30
2022-11-29T00:41:25.971Z,3.88
2022-11-29T00:45:28.082Z,3.72
2022-11-29T00:49:29.672Z,3.65
2022-11-29T00:53:31.976Z,3.78
2022-11-29T00:57:33.601Z,2.95
2022-11-29T01:01:35.317Z,3.28
2022-11-29T01:05:37.092Z,3.83
2022-11-29T01:09:38.730Z,3.28
2022-11-29T01:13:41.294Z,3.35
2022-11-29T01:17:43.232Z,3.85
2022-11-29T01:21:44.922Z,4.43
2022-11-29T01:25:46.574Z,3.22
2022-11-29T01:29:48.294Z,3.42
2022-11-29T01:33:54.797Z,3.15
2022-11-29T01:37:56.443Z,3.88
2022-11-29T01:41:58.191Z,3.63
2022-11-29T01:45:59.904Z,3.60
2022-11-29T01:50:03.401Z,3.90
2022-11-29T01:54:06.832Z,3.80
2022-11-29T01:58:09.098Z,3.70
2022-11-29T02:02:14.675Z,3.40
2022-11-29T02:06:16.509Z,4.05
2022-11-29T02:10:18.445Z,3.97
2022-11-29T02:14:31.751Z,3.92
2022-11-29T02:18:52.920Z,3.47
2022-11-29T02:23:16.130Z,3.67
2022-11-29T02:27:26.839Z,3.78
2022-11-29T02:31:37.786Z,3.80
2022-11-29T02:36:04.798Z,4.28
2022-11-29T02:40:34.921Z,3.85
2022-11-29T02:44:51.885Z,3.95
2022-11-29T02:49:07.309Z,3.65
2022-11-29T02:53:11.944Z,3.92
2022-11-29T02:57:37.652Z,3.72
2022-11-29T03:01:59.193Z,3.72
2022-11-29T03:06:12.202Z,3.85
2022-11-29T03:10:39.317Z,3.88
2022-11-29T03:15:01.991Z,3.80
2022-11-29T03:19:15.643Z,3.75
2022-11-29T03:23:34.209Z,4.28
2022-11-29T03:27:47.583Z,3.90
2022-11-29T03:31:58.117Z,4.35
2022-11-29T03:36:21.538Z,4.07
2022-11-29T03:40:31.925Z,3.83
2022-11-29T03:44:45.370Z,4.10
2022-11-29T03:48:56.235Z,4.10
2022-11-29T03:53:23.692Z,4.57
2022-11-29T03:57:34.213Z,4.50
2022-11-29T04:01:44.907Z,4.18
2022-11-29T04:06:07.232Z,3.67
2022-11-29T04:10:53.333Z,3.47
2022-11-29T04:15:15.851Z,3.95
2022-11-29T04:20:00.215Z,3.75
2022-11-29T04:24:38.993Z,4.10
2022-11-29T04:29:17.516Z,3.78
2022-11-29T04:33:22.137Z,4.05
2022-11-29T04:37:35.272Z,3.92
2022-11-29T04:42:01.392Z,4.03
2022-11-29T04:46:36.136Z,4.13
2022-11-29T04:50:52.771Z,3.80
2022-11-29T04:55:26.379Z,3.92
2022-11-29T04:59:51.895Z,4.80
2022-11-29T05:04:16.830Z,4.45
2022-11-29T05:08:42.195Z,4.18
2022-11-29T05:13:20.733Z,3.85
2022-11-29T05:17:55.734Z,4.18
2022-11-29T05:22:26.001Z,4.40
2022-11-29T05:26:53.592Z,4.25
2022-11-29T05:31:19.668Z,4.03
2022-11-29T05:35:50.379Z,5.03
2022-11-29T05:40:06.705Z,4.68
2022-11-29T05:44:12.018Z,4.25
2022-11-29T05:48:37.660Z,4.73
2022-11-29T05:52:54.197Z,4.32
2022-11-29T05:57:20.669Z,4.45
2022-11-29T06:01:24.508Z,4.32
2022-11-29T06:05:49.779Z,3.85
2022-11-29T06:10:01.852Z,3.78
2022-11-29T06:14:24.228Z,4.75
2022-11-29T06:18:46.442Z,4.47
2022-11-29T06:23:12.719Z,4.78
2022-11-29T06:27:36.393Z,4.88
2022-11-29T06:31:44.408Z,4.38
2022-11-29T06:36:13.256Z,4.63
2022-11-29T06:40:16.004Z,4.50
2022-11-29T06:44:18.025Z,4.50
2022-11-29T06:48:25.470Z,4.50
2022-11-29T06:52:49.639Z,4.97
2022-11-29T06:57:04.706Z,4.75
2022-11-29T07:01:32.221Z,4.18
2022-11-29T07:05:35.477Z,4.65
2022-11-29T07:09:37.223Z,4.43
2022-11-29T07:13:39.155Z,4.28
2022-11-29T07:17:59.079Z,4.47
2022-11-29T07:22:36.654Z,4.45
2022-11-29T07:26:59.803Z,5.00
2022-11-29T07:31:27.376Z,4.43
2022-11-29T07:35:50.501Z,5.10
2022-11-29T07:39:59.098Z,3.90
2022-11-29T07:44:32.178Z,4.50
2022-11-29T07:48:33.849Z,4.35
2022-11-29T07:52:35.636Z,4.28
2022-11-29T07:56:37.270Z,4.78
2022-11-29T08:00:39.720Z,4.75
2022-11-29T08:04:45.158Z,4.60
2022-11-29T08:08:47.030Z,5.32
2022-11-29T08:12:50.801Z,5.22
2022-11-29T08:16:52.461Z,4.60
2022-11-29T08:20:54.085Z,5.35
2022-11-29T08:24:55.849Z,5.63
2022-11-29T08:28:57.682Z,5.15
2022-11-29T08:32:59.434Z,4.72
2022-11-29T08:37:01.429Z,6.78
2022-11-29T08:41:04.741Z,5.95
2022-11-29T08:45:07.514Z,5.90
2022-11-29T08:49:09.106Z,5.47
2022-11-29T08:53:29.327Z,5.88
2022-11-29T08:57:39.990Z,5.72
2022-11-29T09:01:43.102Z,5.63
2022-11-29T09:05:44.929Z,6.03
2022-11-29T09:09:46.630Z,7.30
2022-11-29T09:13:50.920Z,5.80
2022-11-29T09:17:52.544Z,5.55
2022-11-29T09:21:54.861Z,6.43
2022-11-29T09:25:56.456Z,5.90
2022-11-29T09:29:58.040Z,5.85
2022-11-29T09:34:00.540Z,6.65
2022-11-29T09:38:02.145Z,5.70
2022-11-29T09:42:20.430Z,5.85
2022-11-29T09:46:22.071Z,5.18
2022-11-29T09:50:42.859Z,5.55
2022-11-29T09:54:44.675Z,5.50
2022-11-29T09:58:58.859Z,5.72
2022-11-29T10:03:19.700Z,5.72
2022-11-29T10:07:28.038Z,5.45
2022-11-29T10:11:41.167Z,5.80
2022-11-29T10:15:45.700Z,5.72
2022-11-29T10:19:52.888Z,5.18
2022-11-29T10:24:02.645Z,5.07
2022-11-29T10:28:06.650Z,5.68
2022-11-29T10:32:16.166Z,5.75
2022-11-29T10:36:40.421Z,6.22
2022-11-29T10:40:46.833Z,7.28
2022-11-29T10:44:48.436Z,6.63
2022-11-29T10:48:50.098Z,6.95
2022-11-29T10:52:58.585Z,5.93
2022-11-29T10:57:02.672Z,6.80
2022-11-29T11:01:07.373Z,6.90
2022-11-29T11:05:18.492Z,6.80
2022-11-29T11:09:35.617Z,6.40
2022-11-29T11:13:37.887Z,6.00
2022-11-29T11:17:42.138Z,6.57
2022-11-29T11:21:44.312Z,5.88
2022-11-29T11:25:50.001Z,6.45
2022-11-29T11:29:52.524Z,6.60
2022-11-29T11:33:54.352Z,6.25
2022-11-29T11:37:57.452Z,6.32
2022-11-29T11:42:17.967Z,6.32
2022-11-29T11:46:20.071Z,6.28
2022-11-29T11:50:36.036Z,5.90
2022-11-29T11:54:55.487Z,5.63
2022-11-29T11:58:58.002Z,6.18
2022-11-29T12:03:00.711Z,6.68
2022-11-29T12:07:05.607Z,6.60
2022-11-29T12:11:11.767Z,6.60
2022-11-29T12:19:34.634Z,6.22
2022-11-29T12:23:49.068Z,7.38
2022-11-29T12:27:51.190Z,8.10
2022-11-29T12:32:29.256Z,6.70
2022-11-29T12:36:44.636Z,6.70
2022-11-29T12:41:06.014Z,7.25
2022-11-29T12:45:26.631Z,7.45
2022-11-29T12:49:43.424Z,7.05
2022-11-29T12:54:09.488Z,7.50
2022-11-29T12:58:26.146Z,7.57
2022-11-29T13:02:55.054Z,7.88
2022-11-29T13:07:15.973Z,7.47
2022-11-29T13:11:34.952Z,7.57
2022-11-29T13:15:46.481Z,7.60
2022-11-29T13:19:56.743Z,7.80
2022-11-29T13:24:09.171Z,7.32
2022-11-29T13:28:30.378Z,7.63
2022-11-29T13:33:05.849Z,7.65
2022-11-29T13:37:38.226Z,8.00
2022-11-29T13:42:07.439Z,8.10
2022-11-29T13:46:30.120Z,8.20
2022-11-29T13:50:41.166Z,8.20
2022-11-29T13:54:42.908Z,7.72
2022-11-29T13:58:44.705Z,8.30
2022-11-29T14:02:46.461Z,8.73
2022-11-29T14:06:49.539Z,8.02
2022-11-29T14:10:53.665Z,8.23
2022-11-29T14:15:16.377Z,7.57
2022-11-29T14:19:34.473Z,7.88
2022-11-29T14:23:43.781Z,9.18
2022-11-29T14:27:53.121Z,7.43
2022-11-29T14:31:55.489Z,8.70
2022-11-29T14:36:07.526Z,8.07
2022-11-29T14:40:46.691Z,8.60
2022-11-29T14:44:50.849Z,8.00
2022-11-29T14:48:55.180Z,8.15
2022-11-29T14:52:57.017Z,8.27
2022-11-29T14:57:18.629Z,7.78
2022-11-29T15:01:21.303Z,9.00
2022-11-29T15:05:31.941Z,8.93
2022-11-29T15:09:34.882Z,8.70
2022-11-29T15:13:45.317Z,12.65
2022-11-29T15:18:00.897Z,12.00
2022-11-29T15:22:19.115Z,10.83
2022-11-29T15:26:21.574Z,10.15
2022-11-29T15:30:33.201Z,11.05
2022-11-29T15:34:37.873Z,10.30
2022-11-29T15:38:45.410Z,11.05
2022-11-29T15:42:47.193Z,11.30
2022-11-29T15:46:48.883Z,9.73
2022-11-29T15:51:11.346Z,10.93
2022-11-29T15:55:14.281Z,9.55
2022-11-29T15:59:40.832Z,10.05
2022-11-29T16:03:45.435Z,9.57
2022-11-29T16:07:52.441Z,9.93
2022-11-29T16:11:54.332Z,10.13
2022-11-29T16:16:19.472Z,9.75
2022-11-29T16:20:24.392Z,9.60
2022-11-29T16:24:26.461Z,9.45
2022-11-29T16:28:33.488Z,9.77
2022-11-29T16:32:42.825Z,8.88
2022-11-29T16:36:45.811Z,10.30
2022-11-29T16:41:06.349Z,9.27
2022-11-29T16:45:34.097Z,8.48
2022-11-29T16:49:36.579Z,8.88
2022-11-29T16:53:43.596Z,8.25
2022-11-29T16:57:47.172Z,9.60
2022-11-29T17:01:49.177Z,8.95
2022-11-29T17:05:51.311Z,8.27
2022-11-29T17:09:53.462Z,9.05
2022-11-29T17:13:55.087Z,8.38
2022-11-29T17:17:56.810Z,7.63
2022-11-29T17:21:58.971Z,8.65
2022-11-29T17:26:01.860Z,8.77
2022-11-29T17:30:05.709Z,9.95
2022-11-29T17:34:07.381Z,9.70
2022-11-29T17:38:08.990Z,10.02
2022-11-29T17:42:12.259Z,11.20
2022-11-29T17:46:26.311Z,10.20
2022-11-29T17:50:27.919Z,11.20
2022-11-29T17:54:32.894Z,11.25
2022-11-29T17:58:35.981Z,10.82
2022-11-29T18:02:37.768Z,12.02
2022-11-29T18:06:40.466Z,11.07
2022-11-29T18:10:42.089Z,11.80
2022-11-29T18:14:43.820Z,11.00
2022-11-29T18:18:46.033Z,12.38
2022-11-29T18:22:47.917Z,12.07
2022-11-29T18:26:49.572Z,11.93
2022-11-29T18:30:51.293Z,11.73
2022-11-29T18:34:52.912Z,11.18
2022-11-29T18:38:59.754Z,11.52
2022-11-29T18:43:01.397Z,11.70
2022-11-29T18:47:03.886Z,12.20
2022-11-29T18:51:11.315Z,10.88
2022-11-29T18:55:12.939Z,11.57
2022-11-29T18:59:17.140Z,11.75
2022-11-29T19:03:19.179Z,11.55
2022-11-29T19:07:20.859Z,10.73
2022-11-29T19:11:24.369Z,10.82
2022-11-29T19:15:26.198Z,12.50
2022-11-29T19:19:28.221Z,11.90
2022-11-29T19:23:29.862Z,11.57
2022-11-29T19:27:31.912Z,10.68
2022-11-29T19:31:33.529Z,12.77
2022-11-29T19:35:35.346Z,11.30
2022-11-29T19:39:38.059Z,11.68
2022-11-29T19:43:39.911Z,11.52
2022-11-29T19:47:41.614Z,11.07
2022-11-29T19:51:43.363Z,11.88
2022-11-29T19:55:45.096Z,11.90
2022-11-29T19:59:47.309Z,10.57
2022-11-29T20:03:49.911Z,12.57
2022-11-29T20:07:51.589Z,11.07
2022-11-29T20:11:53.280Z,11.10
2022-11-29T20:15:54.986Z,11.82
2022-11-29T20:19:56.789Z,10.82
2022-11-29T20:24:04.679Z,11.13
2022-11-29T20:28:06.811Z,10.82
2022-11-29T20:32:08.546Z,10.90
2022-11-29T20:36:31.417Z,10.25
2022-11-29T20:41:02.309Z,9.98
2022-11-29T20:45:07.819Z,10.57
2022-11-29T20:49:12.182Z,12.00
2022-11-29T20:53:31.769Z,10.93
2022-11-29T20:57:33.402Z,10.63
2022-11-29T21:01:35.276Z,9.77
2022-11-29T21:05:37.882Z,9.85
2022-11-29T21:09:39.484Z,10.45
2022-11-29T21:13:41.526Z,10.15
2022-11-29T21:17:44.123Z,10.32
2022-11-29T21:22:05.124Z,20.30
2022-11-29T21:26:20.724Z,17.75
2022-11-29T21:30:24.851Z,18.03
2022-11-29T21:34:26.457Z,15.32
2022-11-29T21:38:29.309Z,14.23
2022-11-29T21:42:30.923Z,16.15
2022-11-29T21:46:32.564Z,13.88
2022-11-29T21:50:34.174Z,15.15
2022-11-29T21:54:35.761Z,13.85
2022-11-29T21:58:39.289Z,11.65
2022-11-29T22:02:41.058Z,11.93
2022-11-29T22:06:42.932Z,12.10
2022-11-29T22:10:44.512Z,12.70
2022-11-29T22:14:46.449Z,11.77
2022-11-29T22:18:48.307Z,13.02
2022-11-29T22:22:51.102Z,10.40
2022-11-29T22:26:55.753Z,12.05
2022-11-29T22:31:11.551Z,11.85
2022-11-29T22:35:13.217Z,10.52
2022-11-29T22:39:15.007Z,10.40
2022-11-29T22:43:16.645Z,10.73
2022-11-29T22:47:18.332Z,10.32
2022-11-29T22:51:41.248Z,10.23
2022-11-29T22:55:43.441Z,10.65
2022-11-29T22:59:45.049Z,10.38
2022-11-29T23:03:49.130Z,11.32
2022-11-29T23:07:55.091Z,9.93
2022-11-29T23:11:56.771Z,10.23
2022-11-29T23:15:58.390Z,10.02
2022-11-29T23:20:00.098Z,9.27
2022-11-29T23:24:02.269Z,10.95
2022-11-29T23:28:03.951Z,10.13
2022-11-29T23:32:05.597Z,9.55
2022-11-29T23:36:09.170Z,9.75
2022-11-29T23:40:11.140Z,9.38
2022-11-29T23:44:12.803Z,9.77
2022-11-29T23:48:14.700Z,11.35
2022-11-29T23:52:16.335Z,10.50
2022-11-29T23:56:18.056Z,8.57
